createdAt,value
2018-06-18T00:02:25.256Z,94821.59
2018-06-18T00:04:58.044Z,94828.38
2018-06-18T00:07:30.633Z,94826.52
2018-06-18T00:10:02.608Z,94816.11
2018-06-18T00:12:37.420Z,94813.64
2018-06-18T00:15:10.811Z,94819.75
2018-06-18T00:17:44.556Z,94807.96
2018-06-18T00:20:15.958Z,94805.59
2018-06-18T00:22:48.859Z,94812.03
2018-06-18T00:25:22.080Z,94823.20
2018-06-18T00:27:54.296Z,94816.14
2018-06-18T00:30:26.167Z,94816.72
2018-06-18T00:32:58.061Z,94819.55
2018-06-18T00:35:29.771Z,94828.08
2018-06-18T00:38:05.298Z,94828.66
2018-06-18T00:40:39.043Z,94829.55
2018-06-18T00:43:11.304Z,94824.73
2018-06-18T00:45:43.103Z,94821.17
2018-06-18T00:48:17.080Z,94819.20
2018-06-18T00:50:49.470Z,94812.63
2018-06-18T00:53:23.918Z,94817.28
2018-06-18T00:56:06.864Z,94815.59
2018-06-18T00:58:39.032Z,94816.16
2018-06-18T01:01:11.406Z,94807.57
2018-06-18T01:03:43.696Z,94808.58
2018-06-18T01:06:18.463Z,94811.33
2018-06-18T01:08:52.450Z,94815.11
2018-06-18T01:11:25.083Z,94810.80
2018-06-18T01:13:59.483Z,94811.23
2018-06-18T01:16:31.633Z,94817.39
2018-06-18T01:19:08.201Z,94821.23
2018-06-18T01:21:40.688Z,94825.20
2018-06-18T01:24:23.635Z,94826.06
2018-06-18T01:26:58.691Z,94820.03
2018-06-18T01:29:31.108Z,94820.09
2018-06-18T01:32:04.105Z,94825.83
2018-06-18T01:34:37.227Z,94823.73
2018-06-18T01:37:13.203Z,94822.17
2018-06-18T01:39:46.004Z,94822.73
2018-06-18T01:42:19.661Z,94824.86
2018-06-18T01:44:53.517Z,94831.20
2018-06-18T01:47:24.979Z,94831.02
2018-06-18T01:49:57.209Z,94827.36
2018-06-18T01:52:31.110Z,94832.58
2018-06-18T01:55:03.716Z,94833.56
2018-06-18T01:57:36.879Z,94840.58
2018-06-18T02:02:38.496Z,94849.53
2018-06-18T02:05:10.445Z,94852.03
2018-06-18T02:07:44.453Z,94857.03
2018-06-18T02:10:16.416Z,94862.08
2018-06-18T02:12:49.308Z,94857.91
2018-06-18T02:15:22.729Z,94858.07
2018-06-18T02:17:56.098Z,94858.22
2018-06-18T02:20:27.788Z,94864.66
2018-06-18T02:22:59.870Z,94863.23
2018-06-18T02:25:31.117Z,94869.80
2018-06-18T02:28:08.543Z,94865.72
2018-06-18T02:30:46.138Z,94872.55
2018-06-18T02:33:22.632Z,94871.31
2018-06-18T02:36:01.801Z,94871.05
2018-06-18T02:38:39.334Z,94867.16
2018-06-18T02:41:10.557Z,94871.36
2018-06-18T02:43:46.104Z,94876.50
2018-06-18T02:46:18.018Z,94879.30
2018-06-18T02:48:52.145Z,94880.10
2018-06-18T02:51:26.050Z,94882.55
2018-06-18T02:53:58.189Z,94890.05
2018-06-18T02:57:07.795Z,94890.20
2018-06-18T02:59:39.917Z,94892.70
2018-06-18T03:02:12.247Z,94897.50
2018-06-18T03:04:46.289Z,94895.89
2018-06-18T03:07:19.626Z,94898.67
2018-06-18T03:09:53.854Z,94901.39
2018-06-18T03:12:27.166Z,94897.74
2018-06-18T03:14:59.537Z,94902.66
2018-06-18T03:17:32.133Z,94909.36
2018-06-18T03:20:10.195Z,94917.95
2018-06-18T03:22:46.193Z,94918.81
2018-06-18T03:25:22.659Z,94921.00
2018-06-18T03:27:59.999Z,94924.52
2018-06-18T03:30:37.531Z,94920.84
2018-06-18T03:33:08.381Z,94921.41
2018-06-18T03:35:39.460Z,94921.23
2018-06-18T03:38:11.388Z,94928.95
2018-06-18T03:40:42.941Z,94929.58
2018-06-18T03:43:16.391Z,94925.31
2018-06-18T03:45:50.759Z,94926.81
2018-06-18T03:48:24.372Z,94930.49
2018-06-18T03:51:01.353Z,94927.27
2018-06-18T03:53:33.983Z,94936.36
2018-06-18T03:56:07.088Z,94936.39
2018-06-18T03:58:41.639Z,94931.98
2018-06-18T04:01:33.712Z,94945.95
2018-06-18T04:04:12.347Z,94943.14
2018-06-18T04:06:48.148Z,94952.30
2018-06-18T04:09:26.860Z,94946.71
2018-06-18T04:12:02.897Z,94948.95
2018-06-18T04:14:33.528Z,94942.92
2018-06-18T04:17:07.232Z,94942.23
2018-06-18T04:19:38.998Z,94949.14
2018-06-18T04:22:10.346Z,94950.61
2018-06-18T04:24:43.888Z,94943.48
2018-06-18T04:27:17.182Z,94946.24
2018-06-18T04:29:49.179Z,94943.97
2018-06-18T04:32:21.896Z,94943.78
2018-06-18T04:34:56.056Z,94937.34
2018-06-18T04:37:28.726Z,94941.68
2018-06-18T04:40:02.071Z,94927.97
2018-06-18T04:42:39.947Z,94942.13
2018-06-18T04:45:17.761Z,94943.66
2018-06-18T04:47:55.439Z,94938.46
2018-06-18T04:50:31.951Z,94946.38
2018-06-18T04:53:02.903Z,94943.50
2018-06-18T04:55:36.342Z,94942.05
2018-06-18T04:58:10.184Z,94949.64
2018-06-18T05:01:20.721Z,94945.48
2018-06-18T05:03:51.595Z,94948.56
2018-06-18T05:06:26.246Z,94948.70
2018-06-18T05:09:12.700Z,94947.11
2018-06-18T05:11:46.107Z,94948.61
2018-06-18T05:14:18.564Z,94947.05
2018-06-18T05:16:50.324Z,94954.19
2018-06-18T05:19:21.269Z,94958.19
2018-06-18T05:21:54.539Z,94954.27
2018-06-18T05:24:26.304Z,94958.23
2018-06-18T05:27:00.965Z,94951.42
2018-06-18T05:29:33.134Z,94955.17
2018-06-18T05:32:05.858Z,94956.55
2018-06-18T05:34:37.309Z,94949.72
2018-06-18T05:37:17.044Z,94952.94
2018-06-18T05:39:52.619Z,94943.38
2018-06-18T05:42:24.587Z,94949.86
2018-06-18T05:44:56.664Z,94947.61
2018-06-18T05:47:27.847Z,94954.39
2018-06-18T05:50:03.108Z,94947.66
2018-06-18T05:52:38.018Z,94949.49
2018-06-18T05:55:11.155Z,94945.52
2018-06-18T05:57:48.918Z,94944.78
2018-06-18T06:00:20.063Z,94942.58
2018-06-18T06:02:51.409Z,94942.05
2018-06-18T06:05:23.515Z,94939.46
2018-06-18T06:07:55.567Z,94940.92
2018-06-18T06:10:28.659Z,94937.96
2018-06-18T06:13:03.867Z,94950.55
2018-06-18T06:15:36.788Z,94949.63
2018-06-18T06:18:10.381Z,94950.88
2018-06-18T06:20:45.820Z,94944.91
2018-06-18T06:23:18.986Z,94949.80
2018-06-18T06:25:57.347Z,94941.75
2018-06-18T06:28:31.783Z,94934.81
2018-06-18T06:31:03.537Z,94944.92
2018-06-18T06:33:36.540Z,94940.02
2018-06-18T06:36:10.382Z,94946.16
2018-06-18T06:38:42.243Z,94944.98
2018-06-18T06:41:13.114Z,94944.92
2018-06-18T06:43:44.871Z,94944.41
2018-06-18T06:46:17.573Z,94944.39
2018-06-18T06:48:49.748Z,94946.61
2018-06-18T06:51:26.244Z,94940.86
2018-06-18T06:53:58.755Z,94945.52
2018-06-18T06:56:31.596Z,94939.61
2018-06-18T06:59:04.353Z,94934.75
2018-06-18T07:01:34.944Z,94942.77
2018-06-18T07:04:08.551Z,94937.08
2018-06-18T07:06:41.511Z,94932.51
2018-06-18T07:09:17.834Z,94929.33
2018-06-18T07:11:50.675Z,94936.77
2018-06-18T07:14:26.538Z,94931.70
2018-06-18T07:16:59.343Z,94930.16
2018-06-18T07:19:33.241Z,94951.30
2018-06-18T07:22:05.315Z,94943.75
2018-06-18T07:24:38.121Z,94939.59
2018-06-18T07:27:11.714Z,94950.63
2018-06-18T07:29:43.844Z,94933.53
2018-06-18T07:32:16.845Z,94943.42
2018-06-18T07:34:49.495Z,94939.66
2018-06-18T07:37:20.645Z,94942.41
2018-06-18T07:39:51.697Z,94933.69
2018-06-18T07:42:22.522Z,94932.88
2018-06-18T07:44:54.941Z,94931.45
2018-06-18T07:47:26.893Z,94935.36
2018-06-18T07:50:00.104Z,94923.77
2018-06-18T07:52:32.503Z,94930.67
2018-06-18T07:55:04.804Z,94927.55
2018-06-18T07:57:35.581Z,94932.43
2018-06-18T08:00:09.640Z,94933.92
2018-06-18T08:02:41.120Z,94926.10
2018-06-18T08:05:13.317Z,94928.72
2018-06-18T08:07:45.913Z,94927.96
2018-06-18T08:10:19.592Z,94928.25
2018-06-18T08:12:52.019Z,94927.39
2018-06-18T08:15:23.328Z,94926.33
2018-06-18T08:17:55.199Z,94926.27
2018-06-18T08:20:26.581Z,94923.57
2018-06-18T08:22:59.802Z,94920.69
2018-06-18T08:25:31.819Z,94917.24
2018-06-18T08:28:03.878Z,94921.21
2018-06-18T08:30:37.885Z,94923.24
2018-06-18T08:33:09.363Z,94918.66
2018-06-18T08:35:40.767Z,94918.83
2018-06-18T08:38:12.929Z,94919.84
2018-06-18T08:40:44.289Z,94924.05
2018-06-18T08:43:18.760Z,94916.65
2018-06-18T08:45:50.671Z,94924.67
2018-06-18T08:48:26.874Z,94913.02
2018-06-18T08:51:02.738Z,94917.45
2018-06-18T08:53:40.067Z,94913.56
2018-06-18T08:56:18.660Z,94910.31
2018-06-18T08:58:55.939Z,94903.11
2018-06-18T09:01:31.426Z,94912.80
2018-06-18T09:04:13.389Z,94912.03
2018-06-18T09:06:45.406Z,94913.66
2018-06-18T09:09:19.354Z,94914.97
2018-06-18T09:11:53.388Z,94926.91
2018-06-18T09:14:24.215Z,94927.00
2018-06-18T09:16:55.653Z,94930.04
2018-06-18T09:19:26.402Z,94926.34
2018-06-18T09:21:58.760Z,94920.30
2018-06-18T09:24:35.363Z,94910.05
2018-06-18T09:27:16.137Z,94904.63
2018-06-18T09:29:52.530Z,94918.88
2018-06-18T09:32:24.013Z,94919.91
2018-06-18T09:34:55.209Z,94920.83
2018-06-18T09:37:26.879Z,94911.16
2018-06-18T09:39:59.583Z,94908.48
2018-06-18T09:42:31.665Z,94904.34
2018-06-18T09:45:05.407Z,94913.58
2018-06-18T09:47:36.934Z,94916.25
2018-06-18T09:50:13.642Z,94924.30
2018-06-18T09:52:50.346Z,94911.17
2018-06-18T09:55:29.001Z,94910.88
2018-06-18T09:58:05.490Z,94911.37
2018-06-18T10:00:53.452Z,94910.31
2018-06-18T10:03:25.557Z,94913.96
2018-06-18T10:05:59.463Z,94908.56
2018-06-18T10:08:30.523Z,94911.47
2018-06-18T10:11:02.012Z,94903.56
2018-06-18T10:13:32.745Z,94915.53
2018-06-18T10:16:05.014Z,94917.22
2018-06-18T10:18:37.648Z,94914.98
2018-06-18T10:21:10.031Z,94917.98
2018-06-18T10:23:41.903Z,94914.55
2018-06-18T10:26:15.520Z,94911.08
2018-06-18T10:28:47.423Z,94908.52
2018-06-18T10:31:21.287Z,94908.03
2018-06-18T10:33:59.028Z,94894.13
2018-06-18T10:36:36.108Z,94898.70
2018-06-18T10:39:14.830Z,94890.90
2018-06-18T10:41:51.470Z,94892.77
2018-06-18T10:44:22.576Z,94887.41
2018-06-18T10:46:54.884Z,94886.23
2018-06-18T10:49:26.123Z,94885.55
2018-06-18T10:51:57.176Z,94883.38
2018-06-18T10:54:28.753Z,94886.61
2018-06-18T10:57:00.972Z,94890.18
2018-06-18T10:59:34.341Z,94888.39
2018-06-18T11:02:04.837Z,94893.42
2018-06-18T11:04:36.955Z,94890.98
2018-06-18T11:07:08.084Z,94889.84
2018-06-18T11:09:41.814Z,94894.25
2018-06-18T11:12:13.486Z,94897.68
2018-06-18T11:14:47.554Z,94904.09
2018-06-18T11:17:26.323Z,94896.50
2018-06-18T11:20:04.429Z,94891.91
2018-06-18T11:22:40.723Z,94896.53
2018-06-18T11:25:17.204Z,94883.88
2018-06-18T11:27:48.432Z,94879.03
2018-06-18T11:30:22.420Z,94886.50
2018-06-18T11:32:54.093Z,94883.48
2018-06-18T11:35:26.237Z,94873.89
2018-06-18T11:37:59.806Z,94878.50
2018-06-18T11:40:30.345Z,94874.44
2018-06-18T11:43:02.677Z,94876.45
2018-06-18T11:45:34.269Z,94879.75
2018-06-18T11:48:15.421Z,94879.73
2018-06-18T11:50:48.659Z,94874.89
2018-06-18T11:53:21.461Z,94876.55
2018-06-18T11:55:53.874Z,94864.34
2018-06-18T11:58:30.382Z,94870.24
2018-06-18T12:01:06.714Z,94872.55
2018-06-18T12:03:43.572Z,94870.69
2018-06-18T12:06:19.711Z,94862.88
2018-06-18T12:08:55.405Z,94847.84
2018-06-18T12:11:27.162Z,94854.13
2018-06-18T12:14:01.661Z,94845.53
2018-06-18T12:16:36.126Z,94847.01
2018-06-18T12:19:09.863Z,94846.52
2018-06-18T12:21:41.568Z,94851.19
2018-06-18T12:24:15.037Z,94841.55
2018-06-18T12:26:46.982Z,94844.82
2018-06-18T12:29:19.396Z,94843.92
2018-06-18T12:31:50.950Z,94835.11
2018-06-18T12:34:26.493Z,94832.74
2018-06-18T12:36:59.937Z,94830.42
2018-06-18T12:39:33.726Z,94829.62
2018-06-18T12:42:06.895Z,94831.66
2018-06-18T12:44:46.565Z,94832.64
2018-06-18T12:47:24.806Z,94836.82
2018-06-18T12:50:00.358Z,94835.64
2018-06-18T12:52:36.371Z,94825.98
2018-06-18T12:55:18.179Z,94826.70
2018-06-18T12:57:49.682Z,94828.41
2018-06-18T13:00:21.236Z,94828.30
2018-06-18T13:02:56.906Z,94822.53
2018-06-18T13:05:27.977Z,94823.05
2018-06-18T13:08:00.585Z,94820.69
2018-06-18T13:10:31.631Z,94819.06
2018-06-18T13:13:04.433Z,94816.02
2018-06-18T13:15:37.329Z,94812.09
2018-06-18T13:18:14.158Z,94811.56
2018-06-18T13:20:50.022Z,94812.24
2018-06-18T13:23:23.283Z,94817.39
2018-06-18T13:25:57.411Z,94815.34
2018-06-18T13:28:30.963Z,94819.16
2018-06-18T13:31:02.704Z,94817.92
2018-06-18T13:33:34.998Z,94823.71
2018-06-18T13:36:05.757Z,94820.97
2018-06-18T13:38:45.235Z,94827.86
2018-06-18T13:41:22.313Z,94823.00
2018-06-18T13:43:59.346Z,94826.02
2018-06-18T13:46:37.398Z,94818.25
2018-06-18T13:49:10.389Z,94815.23
2018-06-18T13:51:43.204Z,94811.31
2018-06-18T13:54:16.797Z,94811.20
2018-06-18T13:56:47.780Z,94811.52
2018-06-18T13:59:19.554Z,94812.19
2018-06-18T14:01:52.639Z,94812.53
2018-06-18T14:04:25.924Z,94810.99
2018-06-18T14:06:58.328Z,94811.20
2018-06-18T14:09:29.454Z,94815.34
2018-06-18T14:12:00.853Z,94816.73
2018-06-18T14:14:32.562Z,94818.48
2018-06-18T14:17:06.075Z,94812.46
2018-06-18T14:19:42.250Z,94809.45
2018-06-18T14:22:16.627Z,94820.82
2018-06-18T14:24:49.290Z,94829.00
2018-06-18T14:27:21.560Z,94832.72
2018-06-18T14:30:02.627Z,94838.13
2018-06-18T14:32:40.718Z,94841.33
2018-06-18T14:35:16.814Z,94840.20
2018-06-18T14:37:52.939Z,94835.06
2018-06-18T14:40:24.905Z,94836.11
2018-06-18T14:42:57.957Z,94839.94
2018-06-18T14:45:32.247Z,94840.14
2018-06-18T14:48:04.558Z,94828.30
2018-06-18T14:50:41.148Z,94830.88
2018-06-18T14:53:13.046Z,94834.91
2018-06-18T14:55:46.027Z,94837.64
2018-06-18T14:58:18.733Z,94839.50
2018-06-18T15:00:50.566Z,94852.93
2018-06-18T15:03:22.878Z,94881.17
2018-06-18T15:05:54.654Z,94903.05
2018-06-18T15:08:27.048Z,94884.06
2018-06-18T15:10:57.990Z,94866.53
2018-06-18T15:13:32.076Z,94869.28
2018-06-18T15:16:08.918Z,94871.81
2018-06-18T15:18:40.538Z,94888.73
2018-06-18T15:21:11.723Z,94880.86
2018-06-18T15:23:44.331Z,94898.77
2018-06-18T15:26:16.101Z,94936.45
2018-06-18T15:28:49.033Z,94953.38
2018-06-18T15:31:22.002Z,94977.51
2018-06-18T15:33:56.293Z,95010.37
2018-06-18T15:36:27.630Z,95037.09
2018-06-18T15:39:00.603Z,95027.88
2018-06-18T15:41:37.269Z,95024.02
2018-06-18T15:44:14.738Z,95023.77
2018-06-18T15:46:47.892Z,95028.12
2018-06-18T15:49:29.062Z,95032.14
2018-06-18T15:52:02.367Z,95035.77
2018-06-18T15:54:36.282Z,95040.06
2018-06-18T15:57:08.951Z,95044.69
2018-06-18T15:59:40.991Z,95047.82
2018-06-18T16:02:13.529Z,95056.75
2018-06-18T16:04:45.747Z,95054.73
2018-06-18T16:07:16.415Z,95058.00
2018-06-18T16:09:47.672Z,95061.02
2018-06-18T16:12:19.620Z,95058.86
2018-06-18T16:14:52.267Z,95061.09
2018-06-18T16:17:24.309Z,95074.83
2018-06-18T16:19:55.567Z,95070.95
2018-06-18T16:22:27.331Z,95065.62
2018-06-18T16:24:58.765Z,95069.52
2018-06-18T16:27:31.798Z,95069.05
2018-06-18T16:30:06.025Z,95068.88
2018-06-18T16:32:38.058Z,95074.59
2018-06-18T16:35:09.424Z,95069.63
2018-06-18T16:37:41.304Z,95077.87
2018-06-18T16:40:16.826Z,95083.09
2018-06-18T16:42:48.793Z,95082.05
2018-06-18T16:45:22.456Z,95079.02
2018-06-18T16:47:55.266Z,95081.61
2018-06-18T16:50:28.274Z,95078.97
2018-06-18T16:53:06.758Z,95069.41
2018-06-18T16:55:39.871Z,95064.61
2018-06-18T16:58:12.906Z,95055.16
2018-06-18T17:00:45.327Z,95048.24
2018-06-18T17:03:19.756Z,95035.55
2018-06-18T17:05:51.531Z,95033.86
2018-06-18T17:08:22.498Z,95022.41
2018-06-18T17:11:08.469Z,95024.19
2018-06-18T17:13:40.101Z,95026.20
2018-06-18T17:16:11.357Z,95026.55
2018-06-18T17:18:42.087Z,95022.95
2018-06-18T17:21:15.511Z,95024.44
2018-06-18T17:23:51.989Z,95029.09
2018-06-18T17:26:24.213Z,95035.50
2018-06-18T17:28:57.490Z,95038.53
2018-06-18T17:31:30.332Z,95041.25
2018-06-18T17:34:03.540Z,95032.19
2018-06-18T17:36:35.843Z,95038.02
2018-06-18T17:39:10.790Z,95039.63
2018-06-18T17:41:41.421Z,95039.77
2018-06-18T17:44:15.998Z,95045.75
2018-06-18T17:46:50.581Z,95045.00
2018-06-18T17:49:24.380Z,95048.27
2018-06-18T17:51:56.107Z,95045.30
2018-06-18T17:54:28.493Z,95051.63
2018-06-18T17:56:59.996Z,95054.90
2018-06-18T17:59:33.651Z,95056.67
2018-06-18T18:02:07.865Z,95052.59
2018-06-18T18:04:39.401Z,95060.66
2018-06-18T18:07:10.917Z,95061.00
2018-06-18T18:09:43.631Z,95060.00
2018-06-18T18:12:14.115Z,95055.80
2018-06-18T18:14:45.461Z,95054.47
2018-06-18T18:17:18.856Z,95056.38
2018-06-18T18:19:50.494Z,95047.59
2018-06-18T18:22:21.738Z,95049.66
2018-06-18T18:24:52.457Z,95054.59
2018-06-18T18:27:26.492Z,95053.73
2018-06-18T18:29:59.876Z,95056.81
2018-06-18T18:32:30.927Z,95063.67
2018-06-18T18:35:03.809Z,95069.69
2018-06-18T18:37:36.412Z,95072.86
2018-06-18T18:40:08.850Z,95076.03
2018-06-18T18:42:39.335Z,95080.53
2018-06-18T18:45:10.244Z,95090.11
2018-06-18T18:47:43.919Z,95093.28
2018-06-18T18:50:14.651Z,95095.64
2018-06-18T18:52:46.374Z,95104.55
2018-06-18T18:55:38.555Z,95107.20
2018-06-18T18:58:20.707Z,95107.00
2018-06-18T19:00:56.964Z,95118.67
2018-06-18T19:03:30.795Z,95118.29
2018-06-18T19:06:02.059Z,95126.70
2018-06-18T19:08:33.325Z,95123.49
2018-06-18T19:11:07.229Z,95121.61
2018-06-18T19:13:39.369Z,95121.02
2018-06-18T19:16:10.400Z,95122.05
2018-06-18T19:18:46.801Z,95122.56
2018-06-18T19:21:20.359Z,95123.37
2018-06-18T19:23:53.910Z,95133.25
2018-06-18T19:26:27.859Z,95133.33
2018-06-18T19:28:59.577Z,95135.35
2018-06-18T19:31:32.428Z,95142.73
2018-06-18T19:34:18.412Z,95137.03
2018-06-18T19:36:55.019Z,95139.70
2018-06-18T19:39:31.921Z,95147.34
2018-06-18T19:42:04.076Z,95144.69
2018-06-18T19:44:37.205Z,95150.88
2018-06-18T19:48:17.082Z,95155.61
2018-06-18T19:50:53.987Z,95164.11
2018-06-18T19:53:29.254Z,95162.33
2018-06-18T19:56:01.018Z,95171.33
2018-06-18T19:58:32.597Z,95169.36
2018-06-18T20:01:07.413Z,95177.34
2018-06-18T20:03:40.162Z,95173.23
2018-06-18T20:06:12.432Z,95180.16
2018-06-18T20:08:48.157Z,95181.32
2018-06-18T20:11:20.373Z,95167.86
2018-06-18T20:13:53.659Z,95168.97
2018-06-18T20:16:28.733Z,95176.23
2018-06-18T20:19:02.864Z,95181.18
2018-06-18T20:21:38.542Z,95190.93
2018-06-18T20:24:11.203Z,95189.60
2018-06-18T20:26:44.891Z,95183.39
2018-06-18T20:29:18.915Z,95184.48
2018-06-18T20:31:51.204Z,95184.89
2018-06-18T20:34:23.918Z,95182.88
2018-06-18T20:36:57.237Z,95194.73
2018-06-18T20:39:28.302Z,95190.98
2018-06-18T20:42:02.098Z,95189.16
2018-06-18T20:44:37.981Z,95177.57
2018-06-18T20:47:13.452Z,95178.38
2018-06-18T20:49:49.899Z,95185.24
2018-06-18T20:52:23.434Z,95186.09
2018-06-18T20:54:59.663Z,95194.34
2018-06-18T20:57:40.794Z,95189.95
2018-06-18T21:00:17.436Z,95188.92
2018-06-18T21:02:49.172Z,95192.20
2018-06-18T21:05:21.590Z,95185.36
2018-06-18T21:07:55.927Z,95185.28
2018-06-18T21:10:29.930Z,95176.70
2018-06-18T21:13:02.096Z,95180.27
2018-06-18T21:15:35.886Z,95171.40
2018-06-18T21:18:14.604Z,95165.48
2018-06-18T21:20:51.056Z,95170.09
2018-06-18T21:23:26.871Z,95167.06
2018-06-18T21:26:01.047Z,95162.80
2018-06-18T21:28:34.194Z,95161.25
2018-06-18T21:31:07.668Z,95160.81
2018-06-18T21:33:40.787Z,95157.67
2018-06-18T21:36:18.014Z,95164.30
2018-06-18T21:38:54.113Z,95160.73
2018-06-18T21:41:36.370Z,95171.93
2018-06-18T21:44:19.428Z,95173.25
2018-06-18T21:46:54.347Z,95176.34
2018-06-18T21:49:28.297Z,95185.63
2018-06-18T21:51:59.295Z,95186.95
2018-06-18T21:54:30.280Z,95193.10
2018-06-18T21:57:01.077Z,95190.27
2018-06-18T21:59:31.575Z,95201.58
2018-06-18T22:02:02.709Z,95199.55
2018-06-18T22:04:33.557Z,95197.59
2018-06-18T22:07:04.351Z,95203.85
2018-06-18T22:09:35.216Z,95204.48
2018-06-18T22:12:05.823Z,95204.38
2018-06-18T22:14:36.294Z,95208.05
2018-06-18T22:17:09.137Z,95211.40
2018-06-18T22:19:39.952Z,95205.59
2018-06-18T22:22:11.438Z,95208.78
2018-06-18T22:24:42.315Z,95205.02
2018-06-18T22:27:13.790Z,95203.30
2018-06-18T22:29:44.596Z,95208.38
2018-06-18T22:32:16.037Z,95209.52
2018-06-18T22:34:46.515Z,95207.16
2018-06-18T22:37:16.999Z,95204.95
2018-06-18T22:39:49.157Z,95209.81
2018-06-18T22:42:20.061Z,95206.86
2018-06-18T22:44:50.653Z,95210.76
2018-06-18T22:47:21.508Z,95202.11
2018-06-18T22:49:52.456Z,95203.98
2018-06-18T22:52:23.437Z,95205.16
2018-06-18T22:54:54.788Z,95200.30
2018-06-18T22:57:25.369Z,95195.22
2018-06-18T22:59:56.189Z,95198.19
2018-06-18T23:02:30.319Z,95206.92
2018-06-18T23:05:01.455Z,95208.46
2018-06-18T23:07:33.285Z,95205.81
2018-06-18T23:10:04.439Z,95206.53
2018-06-18T23:12:40.515Z,95210.43
2018-06-18T23:15:12.233Z,95205.32
2018-06-18T23:17:42.853Z,95210.12
2018-06-18T23:20:13.360Z,95201.88
2018-06-18T23:22:44.345Z,95203.39
2018-06-18T23:25:15.670Z,95205.45
2018-06-18T23:27:46.658Z,95201.48
2018-06-18T23:30:17.344Z,95194.86
2018-06-18T23:32:47.966Z,95194.94
2018-06-18T23:35:18.321Z,95197.28
2018-06-18T23:37:48.757Z,95209.20
2018-06-18T23:40:19.320Z,95200.23
2018-06-18T23:42:49.899Z,95205.63
2018-06-18T23:45:20.436Z,95197.80
2018-06-18T23:47:51.008Z,95202.57
2018-06-18T23:50:22.271Z,95197.09
2018-06-18T23:52:53.055Z,95190.17
2018-06-18T23:55:23.650Z,95191.98
2018-06-18T23:57:54.614Z,95192.50
